createdAt,value
2023-01-10T00:00:42.999Z,35.38
2023-01-10T00:03:11.623Z,37.35
2023-01-10T00:05:39.656Z,33.25
2023-01-10T00:08:07.980Z,34.33
2023-01-10T00:10:35.872Z,31.48
2023-01-10T00:13:21.252Z,36.47
2023-01-10T00:15:48.589Z,39.33
2023-01-10T00:18:15.714Z,40.40
2023-01-10T00:20:44.755Z,37.10
2023-01-10T00:23:11.957Z,41.38
2023-01-10T00:25:39.496Z,48.17
2023-01-10T00:28:15.608Z,48.72
2023-01-10T00:30:42.640Z,45.83
2023-01-10T00:33:10.363Z,45.22
2023-01-10T00:35:37.193Z,46.53
2023-01-10T00:38:06.938Z,50.58
2023-01-10T00:40:34.130Z,45.70
2023-01-10T00:43:19.861Z,48.35
2023-01-10T00:45:47.173Z,49.10
2023-01-10T00:48:15.291Z,49.17
2023-01-10T00:50:42.240Z,52.47
2023-01-10T00:53:09.429Z,46.78
2023-01-10T00:55:36.819Z,42.97
2023-01-10T00:58:04.199Z,44.22
2023-01-10T01:00:31.259Z,45.17
2023-01-10T01:02:58.128Z,39.03
2023-01-10T01:05:25.321Z,51.88
2023-01-10T01:07:52.722Z,40.50
2023-01-10T01:10:29.309Z,43.53
2023-01-10T01:13:05.663Z,45.40
2023-01-10T01:15:34.732Z,41.47
2023-01-10T01:18:02.035Z,43.47
2023-01-10T01:20:29.707Z,43.45
2023-01-10T01:22:56.619Z,46.88
2023-01-10T01:25:23.502Z,38.33
2023-01-10T01:27:50.406Z,41.95
2023-01-10T01:30:17.301Z,49.78
2023-01-10T01:32:44.337Z,40.40
2023-01-10T01:35:14.866Z,47.45
2023-01-10T01:37:42.763Z,44.63
2023-01-10T01:40:21.474Z,40.70
2023-01-10T01:42:49.120Z,45.17
2023-01-10T01:45:24.877Z,39.88
2023-01-10T01:48:17.634Z,40.35
2023-01-10T01:50:52.741Z,42.03
2023-01-10T01:53:34.141Z,41.13
2023-01-10T01:56:13.821Z,39.17
2023-01-10T01:59:13.605Z,39.92
2023-01-10T02:01:44.389Z,39.47
2023-01-10T02:04:17.005Z,30.75
2023-01-10T02:06:46.290Z,43.58
2023-01-10T02:09:26.036Z,40.10
2023-01-10T02:11:53.202Z,38.10
2023-01-10T02:14:21.851Z,34.80
2023-01-10T02:16:48.752Z,45.60
2023-01-10T02:19:44.696Z,31.05
2023-01-10T02:22:26.672Z,44.42
2023-01-10T02:25:14.893Z,38.20
2023-01-10T02:28:13.259Z,34.70
2023-01-10T02:30:53.453Z,42.13
2023-01-10T02:33:34.949Z,36.00
2023-01-10T02:36:22.853Z,36.03
2023-01-10T02:39:02.246Z,32.42
2023-01-10T02:41:31.673Z,36.30
2023-01-10T02:44:07.584Z,33.17
2023-01-10T02:46:37.777Z,38.50
2023-01-10T02:49:04.956Z,33.90
2023-01-10T02:51:33.640Z,32.38
2023-01-10T02:54:19.506Z,38.80
2023-01-10T02:56:46.467Z,30.92
2023-01-10T02:59:40.759Z,38.30
2023-01-10T03:02:32.214Z,41.20
2023-01-10T03:05:23.313Z,31.42
2023-01-10T03:08:19.850Z,41.13
2023-01-10T03:10:59.442Z,42.35
2023-01-10T03:26:58.450Z,36.50
2023-01-10T03:29:37.043Z,45.17
2023-01-10T03:32:07.780Z,38.67
2023-01-10T03:34:35.564Z,33.33
2023-01-10T03:37:44.644Z,43.67
2023-01-10T03:40:29.935Z,36.65
2023-01-10T03:43:27.507Z,44.08
2023-01-10T03:46:06.094Z,41.10
2023-01-10T03:48:36.842Z,38.60
2023-01-10T03:51:06.518Z,32.67
2023-01-10T03:53:37.220Z,36.45
2023-01-10T03:56:04.437Z,33.97
2023-01-10T03:58:31.593Z,44.38
2023-01-10T04:00:58.512Z,40.65
2023-01-10T04:03:25.534Z,38.63
2023-01-10T04:05:52.969Z,35.83
2023-01-10T04:08:19.867Z,37.40
2023-01-10T04:10:49.571Z,33.53
2023-01-10T04:13:16.625Z,39.30
2023-01-10T04:15:43.467Z,45.00
2023-01-10T04:18:10.382Z,39.20
2023-01-10T04:20:37.240Z,39.90
2023-01-10T04:23:04.070Z,41.78
2023-01-10T04:25:31.027Z,47.00
2023-01-10T04:27:57.956Z,44.15
2023-01-10T04:30:24.846Z,41.92
2023-01-10T04:32:51.677Z,44.35
2023-01-10T04:35:18.598Z,43.67
2023-01-10T04:37:45.393Z,40.67
2023-01-10T04:40:14.081Z,38.70
2023-01-10T04:42:40.905Z,42.35
2023-01-10T04:45:08.347Z,42.97
2023-01-10T04:47:35.183Z,43.65
2023-01-10T04:50:01.990Z,51.08
2023-01-10T04:52:28.976Z,43.85
2023-01-10T04:54:55.872Z,51.65
2023-01-10T04:57:22.772Z,43.67
2023-01-10T04:59:49.559Z,46.42
2023-01-10T05:02:16.954Z,37.40
2023-01-10T05:04:43.884Z,40.83
2023-01-10T05:07:10.740Z,35.63
2023-01-10T05:09:37.683Z,33.83
2023-01-10T05:12:04.771Z,31.02
2023-01-10T05:14:31.640Z,28.25
2023-01-10T05:16:58.466Z,25.30
2023-01-10T05:19:25.372Z,33.10
2023-01-10T05:21:52.397Z,31.02
2023-01-10T05:24:19.273Z,28.98
2023-01-10T05:26:46.173Z,27.70
2023-01-10T05:29:14.539Z,30.35
2023-01-10T05:31:41.797Z,32.55
2023-01-10T05:34:13.022Z,34.35
2023-01-10T05:36:40.234Z,33.72
2023-01-10T05:39:07.271Z,32.95
2023-01-10T05:41:34.292Z,32.45
2023-01-10T05:44:01.128Z,31.02
2023-01-10T05:46:28.145Z,29.08
2023-01-10T05:48:54.979Z,32.45
2023-01-10T05:51:21.815Z,27.40
2023-01-10T05:53:50.191Z,30.20
2023-01-10T05:56:17.439Z,25.80
2023-01-10T05:58:47.302Z,26.95
2023-01-10T06:01:16.883Z,26.50
2023-01-10T06:03:43.982Z,32.50
2023-01-10T06:06:10.930Z,25.75
2023-01-10T06:08:37.973Z,31.05
2023-01-10T06:11:05.536Z,27.13
2023-01-10T06:13:32.871Z,28.25
2023-01-10T06:15:59.939Z,26.80
2023-01-10T06:18:27.031Z,24.63
2023-01-10T06:20:53.882Z,26.52
2023-01-10T06:23:21.764Z,28.42
2023-01-10T06:25:48.628Z,26.85
2023-01-10T06:28:15.664Z,22.17
2023-01-10T06:30:43.596Z,22.80
2023-01-10T06:33:11.941Z,29.15
2023-01-10T06:35:39.189Z,23.42
2023-01-10T06:38:06.008Z,23.77
2023-01-10T06:40:33.248Z,28.60
2023-01-10T06:43:00.272Z,23.25
2023-01-10T06:45:27.503Z,28.23
2023-01-10T06:47:54.427Z,24.17
2023-01-10T06:50:21.402Z,25.38
2023-01-10T06:53:01.930Z,24.42
2023-01-10T06:55:29.310Z,26.20
2023-01-10T06:58:01.156Z,30.38
2023-01-10T07:00:29.436Z,29.13
2023-01-10T07:02:59.811Z,30.15
2023-01-10T07:05:27.049Z,27.85
2023-01-10T07:07:53.871Z,34.10
2023-01-10T07:10:20.796Z,29.40
2023-01-10T07:12:47.603Z,35.15
2023-01-10T07:15:14.414Z,27.45
2023-01-10T07:17:41.348Z,27.50
2023-01-10T07:20:09.232Z,26.67
2023-01-10T07:22:36.004Z,34.35
2023-01-10T07:25:03.392Z,24.33
2023-01-10T07:27:33.481Z,29.52
2023-01-10T07:30:00.553Z,25.40
2023-01-10T07:32:27.691Z,26.27
2023-01-10T07:34:54.566Z,33.30
2023-01-10T07:37:21.602Z,25.08
2023-01-10T07:39:49.133Z,28.40
2023-01-10T07:42:16.079Z,27.00
2023-01-10T07:44:42.892Z,29.08
2023-01-10T07:47:09.719Z,32.90
2023-01-10T07:49:36.533Z,34.38
2023-01-10T07:52:03.434Z,30.10
2023-01-10T07:54:30.268Z,26.25
2023-01-10T07:56:57.243Z,22.10
2023-01-10T07:59:24.172Z,32.10
2023-01-10T08:01:51.100Z,28.92
2023-01-10T08:04:17.834Z,26.73
2023-01-10T08:06:44.759Z,25.15
2023-01-10T08:09:12.247Z,24.83
2023-01-10T08:11:41.434Z,28.25
2023-01-10T08:14:08.621Z,30.00
2023-01-10T08:16:35.564Z,24.35
2023-01-10T08:19:02.379Z,23.17
2023-01-10T08:21:29.201Z,23.75
2023-01-10T08:23:56.047Z,31.33
2023-01-10T08:26:22.953Z,25.50
2023-01-10T08:28:49.807Z,27.10
2023-01-10T08:31:16.724Z,33.00
2023-01-10T08:33:43.638Z,24.40
2023-01-10T08:36:18.223Z,27.73
2023-01-10T08:38:45.939Z,28.20
2023-01-10T08:41:13.758Z,19.60
2023-01-10T08:43:40.812Z,25.42
2023-01-10T08:46:08.127Z,31.20
2023-01-10T08:48:35.169Z,29.27
2023-01-10T08:51:06.702Z,26.98
2023-01-10T08:53:33.561Z,25.70
2023-01-10T08:56:00.377Z,27.60
2023-01-10T08:58:27.216Z,24.52
2023-01-10T09:00:54.034Z,32.35
2023-01-10T09:03:21.210Z,26.17
2023-01-10T09:05:48.147Z,32.72
2023-01-10T09:08:14.913Z,21.55
2023-01-10T09:10:41.919Z,30.45
2023-01-10T09:13:09.711Z,26.50
2023-01-10T09:15:41.289Z,27.20
2023-01-10T09:18:08.266Z,27.40
2023-01-10T09:20:37.555Z,25.65
2023-01-10T09:23:13.106Z,23.67
2023-01-10T09:25:39.985Z,28.70
2023-01-10T09:28:07.054Z,20.15
2023-01-10T09:30:34.035Z,32.13
2023-01-10T09:33:01.306Z,29.95
2023-01-10T09:35:30.098Z,27.60
2023-01-10T09:37:59.113Z,23.80
2023-01-10T09:40:53.845Z,27.95
2023-01-10T09:43:36.268Z,24.60
2023-01-10T09:46:10.180Z,22.65
2023-01-10T09:48:49.043Z,18.67
2023-01-10T09:51:27.975Z,23.80
2023-01-10T09:54:10.791Z,19.73
2023-01-10T09:56:40.607Z,24.58
2023-01-10T09:59:17.090Z,18.25
2023-01-10T10:01:47.040Z,22.33
2023-01-10T10:04:35.122Z,19.85
2023-01-10T10:07:07.161Z,21.38
2023-01-10T10:09:35.533Z,23.90
2023-01-10T10:12:30.553Z,22.38
2023-01-10T10:15:07.870Z,23.52
2023-01-10T10:18:19.860Z,23.95
2023-01-10T10:20:46.674Z,25.42
2023-01-10T10:23:27.768Z,25.50
2023-01-10T10:26:17.220Z,21.38
2023-01-10T10:29:14.504Z,23.27
2023-01-10T10:31:49.619Z,24.60
2023-01-10T10:34:36.688Z,23.25
2023-01-10T10:37:09.665Z,22.10
2023-01-10T10:39:42.049Z,21.95
2023-01-10T10:42:14.863Z,24.27
2023-01-10T10:44:54.113Z,25.52
2023-01-10T10:47:23.604Z,19.67
2023-01-10T10:49:59.721Z,21.35
2023-01-10T10:52:32.486Z,19.70
2023-01-10T10:54:59.703Z,19.63
2023-01-10T10:57:30.017Z,16.80
2023-01-10T10:59:58.752Z,17.55
2023-01-10T11:02:31.473Z,20.50
2023-01-10T11:05:05.547Z,21.35
2023-01-10T11:07:35.870Z,20.48
2023-01-10T11:10:05.733Z,19.20
2023-01-10T11:12:36.219Z,16.95
2023-01-10T11:15:03.839Z,19.48
2023-01-10T11:17:34.645Z,22.02
2023-01-10T11:20:04.281Z,21.02
2023-01-10T11:22:40.974Z,20.88
2023-01-10T11:25:15.928Z,24.92
2023-01-10T11:27:50.816Z,18.02
2023-01-10T11:30:34.572Z,20.48
2023-01-10T11:33:04.719Z,21.27
2023-01-10T11:35:41.455Z,20.98
2023-01-10T11:38:14.012Z,23.73
2023-01-10T11:41:00.799Z,16.75
2023-01-10T11:43:34.148Z,21.35
2023-01-10T11:46:21.300Z,16.97
2023-01-10T11:49:07.648Z,21.17
2023-01-10T11:51:40.894Z,24.15
2023-01-10T11:54:13.366Z,22.80
2023-01-10T11:56:41.746Z,18.67
2023-01-10T11:59:18.358Z,25.13
2023-01-10T12:01:55.057Z,20.90
2023-01-10T12:04:23.155Z,23.15
2023-01-10T12:06:53.807Z,20.15
2023-01-10T12:09:39.943Z,26.48
2023-01-10T12:12:15.274Z,19.23
2023-01-10T12:14:42.232Z,15.15
2023-01-10T12:17:23.295Z,21.00
2023-01-10T12:19:55.539Z,20.05
2023-01-10T12:22:31.212Z,21.02
2023-01-10T12:25:00.381Z,19.65
2023-01-10T12:27:29.006Z,24.30
2023-01-10T12:30:05.491Z,18.45
2023-01-10T12:32:41.353Z,16.95
2023-01-10T12:35:15.168Z,19.35
2023-01-10T12:37:59.189Z,18.77
2023-01-10T12:40:35.859Z,22.92
2023-01-10T12:43:30.876Z,23.20
2023-01-10T12:46:16.506Z,20.00
2023-01-10T12:49:00.963Z,18.67
2023-01-10T12:51:29.859Z,19.10
2023-01-10T12:54:01.951Z,21.45
2023-01-10T12:56:29.812Z,22.83
2023-01-10T12:59:00.789Z,23.52
2023-01-10T13:01:31.967Z,21.52
2023-01-10T13:04:06.577Z,20.85
2023-01-10T13:06:36.100Z,19.52
2023-01-10T13:09:09.832Z,20.00
2023-01-10T13:11:44.552Z,20.60
2023-01-10T13:14:17.781Z,16.98
2023-01-10T13:17:08.347Z,18.05
2023-01-10T13:19:35.286Z,19.45
2023-01-10T13:22:23.632Z,21.50
2023-01-10T13:25:00.036Z,25.67
2023-01-10T13:27:32.329Z,17.27
2023-01-10T13:29:59.893Z,15.15
2023-01-10T13:32:33.679Z,17.15
2023-01-10T13:35:20.077Z,17.02
2023-01-10T13:37:55.498Z,21.42
2023-01-10T13:40:30.546Z,20.40
2023-01-10T13:43:36.836Z,17.85
2023-01-10T13:46:23.983Z,19.10
2023-01-10T13:48:51.310Z,16.75
2023-01-10T13:51:20.427Z,15.68
2023-01-10T13:53:52.974Z,19.63
2023-01-10T13:56:36.463Z,17.63
2023-01-10T13:59:28.931Z,17.67
2023-01-10T14:02:22.916Z,18.65
2023-01-10T14:04:54.405Z,21.55
2023-01-10T14:07:45.840Z,20.70
2023-01-10T14:10:31.419Z,21.65
2023-01-10T14:13:10.020Z,18.65
2023-01-10T14:15:39.753Z,18.17
2023-01-10T14:18:24.689Z,20.50
2023-01-10T14:20:58.870Z,18.70
2023-01-10T14:23:33.375Z,16.05
2023-01-10T14:26:00.660Z,22.67
2023-01-10T14:28:33.195Z,24.70
2023-01-10T14:31:18.974Z,22.63
2023-01-10T14:33:47.558Z,20.92
2023-01-10T14:36:16.264Z,23.17
2023-01-10T14:38:45.613Z,28.25
2023-01-10T14:41:19.895Z,22.95
2023-01-10T14:46:38.726Z,23.45
2023-01-10T14:49:21.751Z,25.85
2023-01-10T14:51:50.616Z,21.90
2023-01-10T14:54:24.924Z,18.80
2023-01-10T14:56:53.468Z,11.48
2023-01-10T14:59:27.744Z,11.32
2023-01-10T15:04:33.057Z,10.75
2023-01-10T15:07:03.183Z,9.52
2023-01-10T15:09:32.075Z,10.40
2023-01-10T15:12:02.252Z,9.88
2023-01-10T15:14:30.316Z,11.50
2023-01-10T15:28:49.286Z,6.13
2023-01-10T15:31:17.283Z,6.88
2023-01-10T15:33:56.015Z,6.97
2023-01-10T15:36:27.257Z,14.00
2023-01-10T15:38:55.233Z,14.75
2023-01-10T15:41:24.335Z,6.60
2023-01-10T15:43:53.697Z,6.97
2023-01-10T15:46:26.975Z,11.50
2023-01-10T15:49:02.942Z,6.63
2023-01-10T15:51:38.743Z,10.13
2023-01-10T15:54:07.253Z,5.60
2023-01-10T15:56:49.100Z,6.82
2023-01-10T15:59:37.388Z,6.65
2023-01-10T16:02:26.202Z,9.90
2023-01-10T16:04:57.703Z,6.30
2023-01-10T16:07:34.545Z,7.57
2023-01-10T16:10:24.784Z,6.30
2023-01-10T16:13:10.264Z,8.73
2023-01-10T16:15:42.079Z,15.20
2023-01-10T16:18:08.977Z,10.10
2023-01-10T16:20:39.571Z,7.68
2023-01-10T16:23:11.159Z,13.27
2023-01-10T16:25:39.561Z,6.13
2023-01-10T16:28:06.792Z,5.97
2023-01-10T16:30:35.204Z,8.18
2023-01-10T16:33:11.420Z,5.95
2023-01-10T16:35:38.439Z,8.50
2023-01-10T16:38:05.289Z,7.78
2023-01-10T16:40:36.775Z,9.32
2023-01-10T16:43:18.774Z,7.30
2023-01-10T16:45:46.329Z,8.38
2023-01-10T16:48:14.459Z,13.45
2023-01-10T16:50:42.496Z,10.65
2023-01-10T16:53:16.999Z,8.05
2023-01-10T16:55:46.809Z,5.55
2023-01-10T16:58:15.561Z,6.82
2023-01-10T17:00:45.481Z,4.75
2023-01-10T17:03:15.650Z,8.32
2023-01-10T17:05:43.087Z,18.75
2023-01-10T17:08:16.675Z,8.20
2023-01-10T17:10:45.586Z,9.18
2023-01-10T17:13:17.919Z,19.60
2023-01-10T17:15:44.878Z,5.85
2023-01-10T17:18:11.794Z,5.30
2023-01-10T17:20:38.821Z,6.80
2023-01-10T17:23:05.715Z,5.82
2023-01-10T17:25:32.586Z,6.45
2023-01-10T17:27:59.515Z,4.28
2023-01-10T17:30:26.382Z,3.83
2023-01-10T17:32:53.212Z,4.72
2023-01-10T17:35:22.408Z,18.65
2023-01-10T17:37:49.782Z,4.03
2023-01-10T17:40:16.769Z,7.32
2023-01-10T17:42:43.765Z,5.00
2023-01-10T17:45:11.478Z,14.90
2023-01-10T17:47:38.369Z,8.02
2023-01-10T17:50:05.537Z,2.65
2023-01-10T17:52:32.434Z,2.35
2023-01-10T17:54:59.664Z,2.70
2023-01-10T17:57:26.911Z,2.80
2023-01-10T17:59:53.769Z,4.22
2023-01-10T18:02:20.811Z,6.00
2023-01-10T18:04:47.971Z,2.75
2023-01-10T18:07:14.808Z,1.70
2023-01-10T18:09:41.738Z,2.75
2023-01-10T18:12:08.669Z,2.30
2023-01-10T18:14:38.735Z,10.27
2023-01-10T18:17:11.097Z,2.35
2023-01-10T18:19:38.782Z,5.03
2023-01-10T18:22:26.455Z,1.33
2023-01-10T18:24:55.089Z,4.18
2023-01-10T18:27:23.269Z,1.00
2023-01-10T18:29:51.714Z,2.13
2023-01-10T18:32:20.196Z,2.67
2023-01-10T18:34:49.953Z,2.05
2023-01-10T18:37:18.301Z,3.50
2023-01-10T18:39:47.534Z,3.42
2023-01-10T18:42:14.437Z,1.98
2023-01-10T18:44:41.425Z,1.92
2023-01-10T18:47:08.676Z,3.45
2023-01-10T18:49:35.672Z,8.85
2023-01-10T18:52:02.705Z,5.90
2023-01-10T18:54:29.590Z,2.40
2023-01-10T18:56:56.656Z,3.40
2023-01-10T18:59:23.587Z,16.65
2023-01-10T19:01:50.722Z,2.33
2023-01-10T19:04:18.778Z,3.80
2023-01-10T19:06:45.972Z,5.90
2023-01-10T19:09:12.954Z,5.88
2023-01-10T19:11:39.830Z,5.80
2023-01-10T19:14:06.850Z,20.65
2023-01-10T19:16:33.801Z,8.55
2023-01-10T19:19:09.172Z,10.50
2023-01-10T19:21:39.024Z,7.07
2023-01-10T19:24:08.760Z,7.13
2023-01-10T19:26:50.224Z,5.63
2023-01-10T19:29:26.995Z,7.60
2023-01-10T19:34:20.800Z,4.72
2023-01-10T19:36:47.909Z,5.65
2023-01-10T19:39:14.897Z,5.55
2023-01-10T19:41:42.625Z,4.82
2023-01-10T19:44:13.429Z,6.43
2023-01-10T19:46:40.865Z,4.32
2023-01-10T19:49:08.676Z,5.10
2023-01-10T19:51:37.144Z,6.45
2023-01-10T19:54:05.714Z,3.55
2023-01-10T19:56:33.278Z,4.65
2023-01-10T19:59:00.482Z,3.20
2023-01-10T20:01:31.448Z,4.20
2023-01-10T20:04:02.007Z,3.17
2023-01-10T20:06:31.167Z,3.55
2023-01-10T20:08:58.599Z,2.38
2023-01-10T20:11:27.054Z,2.40
2023-01-10T20:13:54.030Z,2.55
2023-01-10T20:16:23.039Z,4.68
2023-01-10T20:18:51.609Z,2.78
2023-01-10T20:21:19.388Z,10.18
2023-01-10T20:23:47.013Z,8.77
2023-01-10T20:26:19.817Z,1.60
2023-01-10T20:28:48.041Z,2.00
2023-01-10T20:31:18.365Z,1.65
2023-01-10T20:33:45.584Z,0.80
2023-01-10T20:36:15.195Z,1.73
2023-01-10T20:38:42.355Z,1.30
2023-01-10T20:41:15.192Z,3.75
2023-01-10T20:43:42.869Z,2.90
2023-01-10T20:46:21.109Z,4.28
2023-01-10T20:48:49.010Z,1.10
2023-01-10T20:51:19.423Z,1.83
2023-01-10T20:53:47.734Z,3.42
2023-01-10T20:56:20.732Z,1.10
2023-01-10T20:58:48.195Z,1.30
2023-01-10T21:01:25.087Z,2.80
2023-01-10T21:03:56.431Z,3.75
2023-01-10T21:06:23.655Z,1.27
2023-01-10T21:08:51.348Z,5.72
2023-01-10T21:11:20.430Z,1.80
2023-01-10T21:13:47.318Z,2.53
2023-01-10T21:16:17.236Z,1.30
2023-01-10T21:18:45.043Z,2.55
2023-01-10T21:21:14.560Z,8.10
2023-01-10T21:23:42.186Z,2.78
2023-01-10T21:26:12.337Z,2.75
2023-01-10T21:28:46.856Z,4.95
2023-01-10T21:31:19.377Z,3.15
2023-01-10T21:33:49.178Z,1.85
2023-01-10T21:36:16.780Z,2.28
2023-01-10T21:38:45.030Z,1.58
2023-01-10T21:41:14.483Z,9.75
2023-01-10T21:43:45.397Z,5.10
2023-01-10T21:46:13.089Z,2.80
2023-01-10T21:48:40.086Z,2.45
2023-01-10T21:51:06.903Z,0.93
2023-01-10T21:53:33.693Z,5.15
2023-01-10T21:56:00.573Z,1.77
2023-01-10T21:58:27.687Z,5.03
2023-01-10T22:01:01.607Z,1.02
2023-01-10T22:03:30.933Z,2.38
2023-01-10T22:05:57.885Z,1.60
2023-01-10T22:08:24.824Z,3.80
2023-01-10T22:10:51.635Z,2.38
2023-01-10T22:13:18.805Z,10.43
2023-01-10T22:15:45.747Z,5.30
2023-01-10T22:18:12.579Z,4.63
2023-01-10T22:20:43.482Z,5.45
2023-01-10T22:23:10.393Z,4.30
2023-01-10T22:25:37.399Z,4.40
2023-01-10T22:28:04.435Z,5.38
2023-01-10T22:30:31.348Z,4.43
2023-01-10T22:32:58.308Z,5.45
2023-01-10T22:35:28.186Z,12.93
2023-01-10T22:37:56.600Z,3.47
2023-01-10T22:40:23.834Z,6.05
2023-01-10T22:42:54.782Z,7.65
2023-01-10T22:45:21.818Z,3.33
2023-01-10T22:47:49.975Z,3.30
2023-01-10T22:50:18.293Z,4.25
2023-01-10T22:52:49.416Z,4.55
2023-01-10T22:55:17.751Z,3.63
2023-01-10T22:57:48.011Z,3.47
2023-01-10T23:00:15.716Z,4.25
2023-01-10T23:02:42.732Z,3.58
2023-01-10T23:05:09.965Z,2.72
2023-01-10T23:07:36.830Z,1.92
2023-01-10T23:10:08.460Z,5.25
2023-01-10T23:12:39.092Z,2.80
2023-01-10T23:15:06.703Z,1.33
2023-01-10T23:17:33.505Z,4.32
2023-01-10T23:20:00.445Z,8.02
2023-01-10T23:22:27.326Z,12.63
2023-01-10T23:24:54.287Z,3.20
2023-01-10T23:27:21.243Z,4.63
2023-01-10T23:29:48.134Z,23.85
2023-01-10T23:32:15.058Z,5.72
2023-01-10T23:34:41.937Z,2.40
2023-01-10T23:37:08.793Z,2.13
2023-01-10T23:39:35.810Z,1.40
2023-01-10T23:42:02.648Z,2.53
2023-01-10T23:44:30.983Z,1.38
2023-01-10T23:46:58.120Z,2.22
2023-01-10T23:49:25.027Z,2.72
2023-01-10T23:51:51.896Z,3.33
2023-01-10T23:54:18.806Z,8.10
2023-01-10T23:56:45.801Z,7.93
2023-01-10T23:59:12.691Z,1.55
